Time;durP1;ratioP1;P1;durP2;ratioP2;P2;SDS_P1;SDS_P2;PMS_P1;PMS_P2;Temp;Humidity;BMP_temperature;BMP_pressure;BME280_temperature;BME280_humidity;BME280_pressure;Samples;Min_cycle;Max_cycle;Signal;HPM_P1;HPM_P2
2022/10/24 00:00:12;;;;;;;1.33;0.40;;;14.40;99.90;;;;;;5000427;28;21122;-75
2022/10/24 00:02:38;;;;;;;3.50;0.85;;;14.40;99.90;;;;;;5022867;28;20041;-75
2022/10/24 00:05:04;;;;;;;3.45;0.95;;;14.30;99.90;;;;;;5024969;28;20056;-74
2022/10/24 00:07:31;;;;;;;6.75;0.98;;;14.30;99.90;;;;;;5020556;28;20451;-75
2022/10/24 00:09:57;;;;;;;4.45;1.50;;;14.20;99.90;;;;;;5001284;28;20899;-75
2022/10/24 00:12:23;;;;;;;4.43;1.00;;;14.20;99.90;;;;;;5023233;28;20056;-76
2022/10/24 00:14:49;;;;;;;5.38;1.50;;;14.20;99.90;;;;;;5021947;28;20381;-75
2022/10/24 00:17:16;;;;;;;5.00;1.13;;;14.20;99.90;;;;;;5024006;28;20049;-75
2022/10/24 00:19:42;;;;;;;5.60;1.15;;;14.20;99.90;;;;;;5021502;28;20060;-72
2022/10/24 00:22:08;;;;;;;5.65;1.15;;;14.10;99.90;;;;;;5024972;28;20045;-76
2022/10/24 00:24:34;;;;;;;8.30;2.80;;;14.20;99.90;;;;;;5026184;28;20048;-76
2022/10/24 00:27:01;;;;;;;8.07;1.50;;;14.10;99.90;;;;;;5023458;28;20405;-76
2022/10/24 00:29:27;;;;;;;5.13;1.65;;;14.10;99.90;;;;;;4989998;28;20040;-75
2022/10/24 00:31:53;;;;;;;5.55;1.40;;;14.10;99.90;;;;;;5021458;28;20411;-76
2022/10/24 00:34:20;;;;;;;4.60;1.20;;;14.10;99.90;;;;;;5024103;28;20026;-73
2022/10/24 00:36:46;;;;;;;3.08;0.90;;;14.10;99.90;;;;;;5024673;28;20033;-74
2022/10/24 00:39:12;;;;;;;5.32;1.38;;;14.10;99.90;;;;;;5007496;28;20048;-73
2022/10/24 00:41:41;;;;;;;4.72;1.35;;;14.10;99.90;;;;;;5020115;28;20045;-76
2022/10/24 00:44:24;;;;;;;5.15;1.10;;;14.10;99.90;;;;;;5006906;28;20041;-76
2022/10/24 00:47:00;;;;;;;;;;;14.00;99.90;;;;;;5022865;28;20640;-76
2022/10/24 00:49:38;;;;;;;7.65;1.65;;;14.00;99.90;;;;;;5022842;28;19920;-74
2022/10/24 00:52:08;;;;;;;4.20;1.30;;;14.00;99.90;;;;;;5023784;28;20040;-77
2022/10/24 00:54:37;;;;;;;7.05;1.25;;;14.00;99.90;;;;;;5023363;28;20045;-76
2022/10/24 00:57:06;;;;;;;2.25;0.93;;;14.00;99.90;;;;;;5023314;28;20038;-76
2022/10/24 00:59:34;;;;;;;8.32;1.70;;;14.00;99.90;;;;;;5021840;28;20052;-76
2022/10/24 01:02:02;;;;;;;5.25;1.33;;;14.00;99.90;;;;;;5022452;28;20034;-76
2022/10/24 01:04:28;;;;;;;8.35;1.40;;;14.00;99.90;;;;;;5022865;28;20041;-76
2022/10/24 01:07:05;;;;;;;7.05;1.10;;;14.00;99.90;;;;;;5023603;28;20033;-77
2022/10/24 01:09:50;;;;;;;3.13;1.20;;;14.00;99.90;;;;;;5004170;28;20044;-75
2022/10/24 01:12:31;;;;;;;5.68;1.25;;;13.90;99.90;;;;;;5023298;28;20396;-75
2022/10/24 01:15:42;;;;;;;3.22;1.00;;;13.90;99.90;;;;;;5023217;28;20044;-76
2022/10/24 01:18:19;;;;;;;4.40;0.70;;;13.90;99.90;;;;;;4995936;28;20053;-76
2022/10/24 01:21:04;;;;;;;3.10;1.00;;;13.90;99.90;;;;;;5013676;28;20046;-76
2022/10/24 01:23:53;;;;;;;4.57;1.08;;;13.90;99.90;;;;;;5028132;28;20037;-76
2022/10/24 01:26:51;;;;;;;4.05;0.95;;;13.90;99.90;;;;;;5007144;28;20034;-75
2022/10/24 01:29:38;;;;;;;3.00;0.93;;;13.80;99.90;;;;;;5023438;28;20038;-74
2022/10/24 01:32:10;;;;;;;4.68;1.40;;;13.80;99.90;;;;;;5006946;28;20057;-76
2022/10/24 01:34:43;;;;;;;;;;;13.70;99.90;;;;;;5027429;28;20039;-76
2022/10/24 01:37:37;;;;;;;1.90;0.70;;;13.70;99.90;;;;;;5023813;28;19924;-74
2022/10/24 01:40:13;;;;;;;2.17;0.70;;;13.70;99.90;;;;;;5019117;28;20061;-76
2022/10/24 01:42:42;;;;;;;1.88;1.02;;;13.70;99.90;;;;;;5026667;28;21182;-76
2022/10/24 01:45:14;;;;;;;3.08;0.70;;;13.70;99.90;;;;;;5026874;28;20404;-76
2022/10/24 01:47:46;;;;;;;2.88;1.00;;;13.60;99.90;;;;;;5023902;28;20037;-75
2022/10/24 01:50:15;;;;;;;2.67;1.05;;;13.60;99.90;;;;;;5019415;28;20080;-75
2022/10/24 01:52:43;;;;;;;4.60;1.20;;;13.60;99.90;;;;;;5023251;28;20038;-73
2022/10/24 01:55:11;;;;;;;4.65;1.58;;;13.50;99.90;;;;;;5021154;28;20033;-73
2022/10/24 01:57:38;;;;;;;4.40;1.80;;;13.60;99.90;;;;;;5021696;28;20049;-74
2022/10/24 02:00:06;;;;;;;4.95;1.52;;;13.50;99.90;;;;;;5016470;28;20052;-74
2022/10/24 02:02:41;;;;;;;4.80;1.45;;;13.50;99.90;;;;;;5025959;28;20468;-75
2022/10/24 02:05:17;;;;;;;6.68;2.13;;;13.60;99.90;;;;;;5026630;28;20033;-74
2022/10/24 02:07:46;;;;;;;8.07;1.60;;;13.60;99.90;;;;;;5025391;28;20038;-74
2022/10/24 02:10:19;;;;;;;3.05;1.40;;;13.60;99.90;;;;;;5005095;28;20037;-72
2022/10/24 02:12:52;;;;;;;4.28;1.10;;;13.50;99.90;;;;;;5027257;28;20498;-74
2022/10/24 02:15:27;;;;;;;6.70;1.50;;;13.60;99.90;;;;;;5027234;28;20045;-72
2022/10/24 02:17:55;;;;;;;7.57;1.60;;;13.50;99.90;;;;;;5021392;28;20060;-74
2022/10/24 02:20:28;;;;;;;4.60;1.02;;;13.60;99.90;;;;;;5022246;28;20498;-72
2022/10/24 02:23:13;;;;;;;5.93;1.02;;;13.60;99.90;;;;;;5006873;28;20399;-75
2022/10/24 02:25:43;;;;;;;3.75;1.00;;;13.60;99.90;;;;;;5026056;28;20029;-72
2022/10/24 02:28:14;;;;;;;7.75;3.50;;;13.60;99.90;;;;;;4993284;28;20045;-74
2022/10/24 02:30:50;;;;;;;6.65;3.75;;;13.60;99.90;;;;;;5020556;28;20040;-74
2022/10/24 02:33:17;;;;;;;7.82;2.38;;;13.60;99.90;;;;;;5024929;28;20030;-74
2022/10/24 02:35:46;;;;;;;2.88;1.40;;;13.60;99.90;;;;;;5023975;28;20037;-76
2022/10/24 02:38:15;;;;;;;6.47;1.30;;;13.60;99.90;;;;;;5024991;28;20037;-74
2022/10/24 02:40:44;;;;;;;3.83;0.90;;;13.60;99.90;;;;;;5019167;28;20528;-76
2022/10/24 02:43:12;;;;;;;4.93;1.33;;;13.70;99.90;;;;;;5024563;28;20040;-76
2022/10/24 02:45:39;;;;;;;4.75;1.55;;;13.70;99.90;;;;;;5027081;28;20049;-76
2022/10/24 02:48:10;;;;;;;5.03;1.20;;;13.70;99.90;;;;;;5022295;28;20053;-74
2022/10/24 02:50:39;;;;;;;7.13;1.38;;;13.70;99.90;;;;;;5021265;28;20037;-76
2022/10/24 02:53:08;;;;;;;5.43;1.13;;;13.70;99.90;;;;;;5024649;28;20045;-76
2022/10/24 02:55:35;;;;;;;6.13;1.63;;;13.70;99.90;;;;;;5006339;28;20049;-76
2022/10/24 02:58:01;;;;;;;3.90;0.80;;;13.70;99.90;;;;;;5020962;28;20041;-76
2022/10/24 03:00:27;;;;;;;5.03;0.80;;;13.70;99.90;;;;;;5018998;28;20041;-76
2022/10/24 03:02:53;;;;;;;4.93;0.80;;;13.70;99.90;;;;;;5022930;28;20048;-76
2022/10/24 03:05:20;;;;;;;8.30;1.13;;;13.60;99.90;;;;;;5022050;28;20056;-75
2022/10/24 03:07:46;;;;;;;2.63;0.70;;;13.60;99.90;;;;;;5024704;28;20056;-75
2022/10/24 03:10:13;;;;;;;5.72;1.25;;;13.60;99.90;;;;;;5017919;28;20048;-75
2022/10/24 03:12:39;;;;;;;5.10;1.15;;;13.60;99.90;;;;;;5004973;28;20048;-77
2022/10/24 03:15:05;;;;;;;2.75;0.70;;;13.60;99.90;;;;;;5027993;28;20048;-76
2022/10/24 03:17:32;;;;;;;4.70;0.70;;;13.60;99.90;;;;;;5024861;28;20456;-78
2022/10/24 03:19:58;;;;;;;4.15;0.80;;;13.60;99.90;;;;;;5019529;28;20037;-76
2022/10/24 03:22:24;;;;;;;2.60;0.70;;;13.60;99.90;;;;;;5025230;28;20499;-75
2022/10/24 03:24:50;;;;;;;2.58;0.50;;;13.60;99.90;;;;;;5024869;28;20473;-75
2022/10/24 03:27:17;;;;;;;4.95;1.20;;;13.60;99.90;;;;;;5023473;28;20458;-75
2022/10/24 03:29:43;;;;;;;4.00;0.60;;;13.60;99.90;;;;;;5018153;28;20064;-74
2022/10/24 03:32:09;;;;;;;5.97;0.68;;;13.60;99.90;;;;;;5023681;28;20049;-76
2022/10/24 03:34:36;;;;;;;4.13;0.50;;;13.60;99.90;;;;;;5022191;28;20040;-76
2022/10/24 03:37:02;;;;;;;6.20;0.70;;;13.60;99.90;;;;;;5022475;28;20037;-76
2022/10/24 03:39:28;;;;;;;4.72;0.70;;;13.60;99.90;;;;;;5017922;28;20037;-75
2022/10/24 03:41:55;;;;;;;6.95;0.80;;;13.60;99.90;;;;;;5001548;28;20044;-74
2022/10/24 03:44:21;;;;;;;11.13;1.05;;;13.60;99.90;;;;;;5005272;28;20052;-75
2022/10/24 03:46:47;;;;;;;5.07;0.77;;;13.60;99.90;;;;;;5020430;28;20045;-77
2022/10/24 03:49:13;;;;;;;3.63;0.60;;;13.60;99.90;;;;;;5021946;28;20036;-73
2022/10/24 03:51:40;;;;;;;3.00;0.43;;;13.70;99.90;;;;;;5022470;28;20041;-77
2022/10/24 03:54:06;;;;;;;5.35;0.60;;;13.70;99.90;;;;;;5027208;28;20061;-75
2022/10/24 03:56:32;;;;;;;3.33;0.55;;;13.70;99.90;;;;;;5025523;28;20041;-77
2022/10/24 03:58:58;;;;;;;3.63;0.50;;;13.70;99.90;;;;;;5026237;28;20040;-77
2022/10/24 04:01:25;;;;;;;3.08;0.60;;;13.80;99.90;;;;;;5019922;28;20037;-76
2022/10/24 04:03:51;;;;;;;2.95;0.40;;;13.70;99.90;;;;;;5023967;28;20033;-75
2022/10/24 04:06:17;;;;;;;6.90;0.80;;;13.70;99.90;;;;;;5009537;28;20045;-74
2022/10/24 04:08:44;;;;;;;5.65;0.63;;;13.80;99.90;;;;;;5008238;28;20416;-75
2022/10/24 04:11:11;;;;;;;2.97;0.77;;;13.80;99.90;;;;;;5021278;28;20033;-75
2022/10/24 04:13:37;;;;;;;3.65;0.60;;;13.80;99.90;;;;;;5025567;28;20049;-76
2022/10/24 04:16:03;;;;;;;4.10;0.50;;;13.80;99.90;;;;;;5007296;28;20060;-77
2022/10/24 04:18:30;;;;;;;4.25;0.80;;;13.80;99.90;;;;;;5007959;28;20041;-76
2022/10/24 04:20:56;;;;;;;1.20;0.35;;;13.80;99.90;;;;;;5019944;28;20037;-77
2022/10/24 04:23:22;;;;;;;3.53;0.50;;;13.90;99.90;;;;;;5007711;28;20025;-76
2022/10/24 04:25:49;;;;;;;4.18;0.60;;;13.90;99.90;;;;;;5024969;28;20030;-76
2022/10/24 04:28:15;;;;;;;2.40;0.40;;;14.00;99.90;;;;;;5025784;28;21046;-74
2022/10/24 04:30:41;;;;;;;3.83;0.50;;;14.00;99.90;;;;;;5021187;28;20049;-77
2022/10/24 04:33:08;;;;;;;3.47;0.40;;;13.90;99.90;;;;;;5023758;28;20448;-77
2022/10/24 04:35:34;;;;;;;3.47;0.50;;;13.80;99.90;;;;;;5007739;28;20041;-75
2022/10/24 04:38:00;;;;;;;2.50;0.40;;;13.80;99.90;;;;;;5025338;28;20034;-76
2022/10/24 04:40:27;;;;;;;3.17;0.57;;;13.70;99.90;;;;;;5020165;28;20052;-76
2022/10/24 04:42:53;;;;;;;2.45;0.30;;;13.70;99.90;;;;;;5022983;28;20041;-74
2022/10/24 04:45:19;;;;;;;2.65;0.30;;;13.60;99.90;;;;;;5024975;28;20029;-74
2022/10/24 04:47:46;;;;;;;2.88;0.50;;;13.60;99.90;;;;;;5025492;28;20405;-75
2022/10/24 04:50:12;;;;;;;3.20;0.40;;;13.60;99.90;;;;;;5020576;28;20033;-76
2022/10/24 04:52:38;;;;;;;3.45;0.40;;;13.50;99.90;;;;;;5024615;28;20503;-77
2022/10/24 04:55:05;;;;;;;2.08;0.50;;;13.50;99.90;;;;;;5023385;28;20038;-76
2022/10/24 04:57:31;;;;;;;4.90;0.50;;;13.50;99.90;;;;;;5007770;28;20056;-75
2022/10/24 04:59:57;;;;;;;3.65;0.70;;;13.50;99.90;;;;;;5019514;28;20044;-76
2022/10/24 05:02:23;;;;;;;4.22;0.50;;;13.60;99.90;;;;;;5010627;28;20029;-76
2022/10/24 05:04:50;;;;;;;5.47;0.90;;;13.60;99.90;;;;;;5033899;28;20048;-77
2022/10/24 05:07:16;;;;;;;3.78;0.55;;;13.60;99.90;;;;;;5023810;28;20045;-76
2022/10/24 05:09:42;;;;;;;3.47;0.40;;;13.60;99.90;;;;;;5019782;28;20044;-76
2022/10/24 05:12:09;;;;;;;5.22;0.95;;;13.60;99.90;;;;;;5031954;28;20042;-77
2022/10/24 05:14:35;;;;;;;2.88;0.50;;;13.70;99.90;;;;;;5024276;28;20037;-77
2022/10/24 05:17:02;;;;;;;5.20;1.05;;;13.70;99.90;;;;;;5024922;28;20631;-77
2022/10/24 05:19:28;;;;;;;6.05;0.77;;;13.70;99.90;;;;;;5022652;28;20045;-75
2022/10/24 05:21:54;;;;;;;4.13;0.80;;;13.80;99.90;;;;;;5022470;28;20045;-75
2022/10/24 05:24:20;;;;;;;4.38;0.45;;;13.80;99.90;;;;;;5014070;28;20038;-78
2022/10/24 05:26:46;;;;;;;3.03;0.50;;;13.80;99.90;;;;;;5025787;28;20041;-76
2022/10/24 05:29:13;;;;;;;3.13;0.40;;;13.80;99.90;;;;;;5021037;28;20480;-73
2022/10/24 05:31:39;;;;;;;3.58;0.55;;;13.80;99.90;;;;;;5018398;28;20033;-76
2022/10/24 05:34:06;;;;;;;6.53;0.70;;;13.90;99.90;;;;;;5021319;28;20037;-75
2022/10/24 05:36:32;;;;;;;4.88;1.20;;;13.90;99.90;;;;;;5021193;28;20043;-76
2022/10/24 05:38:58;;;;;;;5.97;1.77;;;13.90;99.90;;;;;;5020051;28;20033;-75
2022/10/24 05:41:24;;;;;;;8.90;2.00;;;13.90;99.90;;;;;;5016185;28;20041;-72
2022/10/24 05:43:50;;;;;;;7.80;2.00;;;13.90;99.90;;;;;;5023270;28;20033;-75
2022/10/24 05:46:17;;;;;;;4.63;1.27;;;13.90;99.90;;;;;;5004891;28;20146;-75
2022/10/24 05:48:43;;;;;;;3.45;0.60;;;13.90;99.90;;;;;;5022448;28;20042;-73
2022/10/24 05:51:10;;;;;;;3.97;0.80;;;13.80;99.90;;;;;;5017139;28;20037;-76
2022/10/24 05:53:36;;;;;;;5.82;0.50;;;13.80;99.90;;;;;;5018545;28;20037;-77
2022/10/24 05:56:02;;;;;;;6.40;0.40;;;13.80;99.90;;;;;;5022902;28;20038;-78
2022/10/24 05:58:28;;;;;;;4.85;0.57;;;13.80;99.90;;;;;;5024148;28;20041;-76
2022/10/24 06:00:55;;;;;;;4.97;0.40;;;13.90;99.90;;;;;;5018167;28;20045;-74
2022/10/24 06:03:22;;;;;;;5.97;1.48;;;13.90;99.90;;;;;;5023756;28;20424;-73
2022/10/24 06:05:49;;;;;;;2.80;0.40;;;14.00;99.90;;;;;;5024771;28;20103;-76
2022/10/24 06:08:16;;;;;;;4.93;0.80;;;14.00;99.90;;;;;;5024871;28;20042;-74
2022/10/24 06:10:46;;;;;;;2.72;0.60;;;14.00;99.90;;;;;;5018573;28;20038;-77
2022/10/24 06:13:13;;;;;;;5.35;0.75;;;14.00;99.90;;;;;;5006956;28;20041;-76
2022/10/24 06:15:43;;;;;;;3.53;0.40;;;14.00;99.90;;;;;;5022507;28;20040;-76
2022/10/24 06:18:09;;;;;;;7.07;0.70;;;14.00;99.90;;;;;;5023679;28;20064;-73
2022/10/24 06:20:36;;;;;;;4.45;1.20;;;14.00;99.90;;;;;;4998963;28;20041;-77
2022/10/24 06:23:03;;;;;;;7.85;1.35;;;14.00;99.90;;;;;;5020515;28;20041;-78
2022/10/24 06:25:29;;;;;;;6.75;0.95;;;14.00;99.90;;;;;;5020520;28;20052;-75
2022/10/24 06:27:55;;;;;;;8.07;1.25;;;14.00;99.90;;;;;;5020303;28;20405;-74
2022/10/24 06:30:21;;;;;;;8.85;0.95;;;14.00;99.90;;;;;;5015928;28;20443;-76
2022/10/24 06:32:48;;;;;;;6.72;0.80;;;14.00;99.90;;;;;;5018267;28;20048;-75
2022/10/24 06:35:14;;;;;;;3.55;0.55;;;14.00;99.90;;;;;;5020281;28;20041;-75
2022/10/24 06:37:42;;;;;;;5.05;0.50;;;14.00;99.90;;;;;;5019001;28;20420;-76
2022/10/24 06:40:08;;;;;;;5.85;0.60;;;14.00;99.90;;;;;;5021529;28;20037;-77
2022/10/24 06:42:35;;;;;;;5.00;1.27;;;14.10;99.90;;;;;;5017333;28;21721;-77
2022/10/24 06:45:01;;;;;;;6.00;2.20;;;14.10;99.90;;;;;;5020159;28;20380;-78
2022/10/24 06:47:27;;;;;;;5.70;1.02;;;14.10;99.90;;;;;;5019734;28;20393;-77
2022/10/24 06:49:54;;;;;;;8.18;1.52;;;14.10;99.90;;;;;;5013730;28;20536;-78
2022/10/24 06:52:20;;;;;;;6.25;0.65;;;14.10;99.90;;;;;;5018778;28;20030;-77
2022/10/24 06:54:46;;;;;;;7.90;1.00;;;14.10;99.90;;;;;;5021472;28;20793;-77
2022/10/24 06:57:12;;;;;;;5.78;0.60;;;14.20;99.90;;;;;;5020441;28;20068;-77
2022/10/24 06:59:39;;;;;;;6.45;0.70;;;14.20;99.90;;;;;;4997518;28;20040;-78
2022/10/24 07:02:05;;;;;;;5.88;0.70;;;14.30;99.90;;;;;;5019343;28;20042;-78
2022/10/24 07:04:31;;;;;;;4.30;0.70;;;14.30;99.90;;;;;;5018576;28;20040;-77
2022/10/24 07:06:58;;;;;;;4.32;0.52;;;14.30;99.90;;;;;;5020606;28;20021;-78
2022/10/24 07:09:24;;;;;;;8.00;1.02;;;14.40;99.90;;;;;;4984840;28;20038;-76
2022/10/24 07:11:50;;;;;;;7.30;1.38;;;14.40;99.90;;;;;;5004402;28;20052;-76
2022/10/24 07:14:16;;;;;;;5.80;0.70;;;14.50;99.90;;;;;;5020343;28;20029;-75
2022/10/24 07:16:44;;;;;;;6.40;1.40;;;14.60;99.90;;;;;;5019710;28;20598;-78
2022/10/24 07:19:10;;;;;;;7.65;0.80;;;14.60;99.90;;;;;;5003428;28;20041;-76
2022/10/24 07:21:36;;;;;;;8.63;1.20;;;14.60;99.90;;;;;;5014903;28;20049;-76
2022/10/24 07:24:03;;;;;;;6.97;1.15;;;14.70;99.90;;;;;;5018744;28;20034;-77
2022/10/24 07:26:30;;;;;;;5.18;0.80;;;14.80;99.90;;;;;;5020422;28;20033;-78
2022/10/24 07:28:59;;;;;;;8.73;0.68;;;14.90;99.90;;;;;;5019657;28;20029;-78
2022/10/24 07:31:29;;;;;;;3.90;0.50;;;14.90;99.90;;;;;;5017968;28;20033;-77
2022/10/24 07:33:55;;;;;;;9.40;1.33;;;14.90;99.90;;;;;;5019863;28;20037;-75
2022/10/24 07:36:24;;;;;;;7.32;1.40;;;14.90;99.90;;;;;;5016906;28;20684;-76
2022/10/24 07:38:55;;;;;;;8.65;2.05;;;15.00;99.90;;;;;;5021258;28;20033;-79
2022/10/24 07:41:23;;;;;;;12.90;4.55;;;15.00;99.90;;;;;;5015309;28;20048;-76
2022/10/24 07:43:50;;;;;;;8.07;1.60;;;15.00;99.90;;;;;;5014211;28;20042;-77
2022/10/24 07:46:17;;;;;;;4.97;0.65;;;15.00;99.90;;;;;;5017983;28;20037;-76
2022/10/24 07:48:44;;;;;;;7.07;0.98;;;15.10;99.90;;;;;;5020243;28;20042;-78
2022/10/24 07:51:13;;;;;;;7.07;0.70;;;15.20;99.90;;;;;;5017352;28;20044;-78
2022/10/24 07:53:40;;;;;;;7.97;1.15;;;15.30;99.90;;;;;;5013956;28;20037;-78
2022/10/24 07:56:10;;;;;;;9.98;1.58;;;15.30;99.90;;;;;;5016850;28;20044;-78
2022/10/24 07:58:37;;;;;;;7.35;0.75;;;15.40;99.90;;;;;;5021091;28;20045;-80
2022/10/24 08:01:13;;;;;;;9.63;0.90;;;15.50;99.90;;;;;;5017714;28;20036;-78
2022/10/24 08:03:40;;;;;;;6.10;0.85;;;15.70;99.90;;;;;;5015167;28;20372;-79
2022/10/24 08:06:08;;;;;;;6.90;0.70;;;15.70;99.90;;;;;;5007518;28;20523;-78
2022/10/24 08:08:36;;;;;;;5.97;0.98;;;15.70;99.90;;;;;;5021557;28;20030;-79
2022/10/24 08:11:16;;;;;;;16.73;2.47;;;15.70;99.90;;;;;;5017618;28;20607;-77
2022/10/24 08:13:43;;;;;;;12.30;1.75;;;15.70;99.90;;;;;;5018483;28;20053;-79
2022/10/24 08:16:12;;;;;;;8.10;0.90;;;15.70;99.90;;;;;;5024415;28;20037;-78
2022/10/24 08:18:39;;;;;;;3.88;0.80;;;15.60;99.90;;;;;;5026908;28;20060;-82
2022/10/24 08:21:08;;;;;;;9.48;0.95;;;15.70;99.90;;;;;;5001688;28;20053;-77
2022/10/24 08:23:37;;;;;;;14.65;2.80;;;15.70;99.90;;;;;;5003542;28;20041;-78
2022/10/24 08:26:05;;;;;;;10.65;1.10;;;15.80;99.90;;;;;;5018127;28;20033;-73
2022/10/24 08:28:32;;;;;;;12.77;0.90;;;15.90;99.90;;;;;;5017412;28;20049;-76
2022/10/24 08:31:00;;;;;;;10.98;0.80;;;16.00;99.90;;;;;;4998605;28;20404;-77
2022/10/24 08:33:27;;;;;;;8.25;1.02;;;15.90;99.90;;;;;;5021308;28;20128;-75
2022/10/24 08:35:58;;;;;;;6.13;0.85;;;15.90;99.90;;;;;;5021680;28;20021;-75
2022/10/24 08:38:24;;;;;;;7.22;0.80;;;15.90;99.90;;;;;;5019804;28;20045;-74
2022/10/24 08:40:51;;;;;;;8.05;1.20;;;15.90;99.90;;;;;;5022260;28;20029;-74
2022/10/24 08:43:19;;;;;;;9.38;0.85;;;16.00;99.90;;;;;;5020580;28;20056;-74
2022/10/24 08:46:14;;;;;;;6.43;0.73;;;16.00;99.90;;;;;;5023446;28;20268;-76
2022/10/24 08:48:48;;;;;;;9.30;1.40;;;16.10;99.90;;;;;;5023794;28;20033;-77
2022/10/24 08:51:40;;;;;;;7.60;0.80;;;16.20;99.90;;;;;;5018601;28;20567;-76
2022/10/24 08:54:13;;;;;;;3.97;0.50;;;16.30;99.90;;;;;;5021463;28;20033;-77
2022/10/24 08:56:40;;;;;;;4.30;0.60;;;16.30;99.90;;;;;;5024204;28;20041;-74
2022/10/24 08:59:11;;;;;;;8.43;0.68;;;16.30;99.90;;;;;;5022234;28;20060;-75
2022/10/24 09:01:50;;;;;;;4.97;0.50;;;16.40;99.90;;;;;;5020470;28;20060;-76
2022/10/24 09:04:20;;;;;;;5.22;1.08;;;16.60;99.90;;;;;;5027068;28;20037;-78
2022/10/24 09:06:50;;;;;;;5.10;0.82;;;16.80;99.90;;;;;;5026262;28;20048;-76
2022/10/24 09:09:36;;;;;;;5.90;0.80;;;17.10;99.90;;;;;;5023255;28;20033;-73
2022/10/24 09:12:12;;;;;;;6.28;0.90;;;17.30;99.90;;;;;;5021896;28;20041;-75
2022/10/24 09:14:41;;;;;;;8.00;0.70;;;17.40;99.90;;;;;;5021146;28;20044;-77
2022/10/24 09:17:28;;;;;;;8.38;0.70;;;17.40;99.90;;;;;;5040614;28;20045;-78
2022/10/24 09:20:20;;;;;;;7.28;0.57;;;17.50;99.90;;;;;;5017099;28;21242;-74
2022/10/24 09:22:47;;;;;;;4.05;1.08;;;17.40;99.90;;;;;;5022034;28;20045;-78
2022/10/24 09:25:21;;;;;;;8.48;1.10;;;17.30;99.90;;;;;;5022477;28;20037;-73
2022/10/24 09:27:48;;;;;;;5.53;0.50;;;17.20;99.90;;;;;;5005772;28;20044;-74
2022/10/24 09:30:19;;;;;;;8.00;1.00;;;17.20;99.90;;;;;;5018679;28;20033;-73
2022/10/24 09:32:46;;;;;;;8.65;1.08;;;17.20;99.90;;;;;;5020299;28;20041;-76
2022/10/24 09:35:24;;;;;;;7.35;0.75;;;17.20;99.90;;;;;;5019651;28;20037;-76
2022/10/24 09:37:56;;;;;;;7.88;0.80;;;17.30;99.90;;;;;;5019901;28;20041;-76
2022/10/24 09:40:23;;;;;;;7.85;0.77;;;17.30;99.90;;;;;;5017147;28;20095;-75
2022/10/24 09:42:59;;;;;;;3.85;0.40;;;17.40;99.90;;;;;;5018397;28;20504;-76
2022/10/24 09:45:28;;;;;;;4.28;0.50;;;17.70;99.90;;;;;;5019906;28;20041;-74
2022/10/24 09:47:58;;;;;;;5.50;0.80;;;17.90;99.90;;;;;;5022012;28;20037;-77
2022/10/24 09:50:26;;;;;;;7.07;0.50;;;18.20;99.90;;;;;;5016006;28;20037;-75
2022/10/24 09:52:56;;;;;;;4.50;0.50;;;18.50;99.90;;;;;;5019279;28;20030;-76
2022/10/24 09:55:27;;;;;;;4.10;0.50;;;18.70;99.90;;;;;;5005789;28;20396;-73
2022/10/24 09:57:56;;;;;;;6.53;0.70;;;18.80;99.90;;;;;;5016717;28;20493;-74
2022/10/24 10:00:30;;;;;;;6.47;0.50;;;19.00;99.90;;;;;;5018149;28;20060;-74
2022/10/24 10:03:17;;;;;;;5.90;0.80;;;18.90;99.90;;;;;;5020795;28;20042;-75
2022/10/24 10:05:48;;;;;;;3.22;0.80;;;18.80;99.90;;;;;;5005489;28;20052;-77
2022/10/24 10:08:28;;;;;;;7.60;0.75;;;18.60;99.90;;;;;;5019257;28;20045;-79
2022/10/24 10:11:02;;;;;;;5.10;0.70;;;18.40;99.90;;;;;;5015849;28;20050;-76
2022/10/24 10:13:30;;;;;;;4.00;0.50;;;18.20;99.90;;;;;;5016282;28;20381;-75
2022/10/24 10:16:06;;;;;;;5.70;0.70;;;18.00;99.90;;;;;;5017890;28;20476;-74
2022/10/24 10:18:37;;;;;;;2.85;0.40;;;18.00;99.90;;;;;;5019685;28;20038;-77
2022/10/24 10:21:12;;;;;;;5.22;0.63;;;18.00;99.90;;;;;;5013066;28;20053;-77
2022/10/24 10:23:53;;;;;;;4.20;1.00;;;18.00;99.90;;;;;;5019268;28;20400;-79
2022/10/24 10:26:27;;;;;;;4.13;0.80;;;18.10;99.90;;;;;;5021068;28;20037;-75
2022/10/24 10:28:56;;;;;;;4.82;0.60;;;18.20;99.90;;;;;;5018463;28;20029;-73
2022/10/24 10:31:42;;;;;;;4.85;0.63;;;18.30;99.90;;;;;;5014732;28;20409;-76
2022/10/24 10:34:45;;;;;;;3.28;0.40;;;18.30;99.90;;;;;;5020397;28;20489;-78
2022/10/24 10:37:29;;;;;;;3.35;0.50;;;18.20;99.90;;;;;;5021934;28;20037;-78
2022/10/24 10:40:24;;;;;;;1.38;0.20;;;18.10;99.90;;;;;;5016184;28;20597;-75
2022/10/24 10:43:17;;;;;;;6.68;0.70;;;18.10;99.90;;;;;;5019692;28;20041;-78
2022/10/24 10:45:59;;;;;;;5.50;0.50;;;18.20;99.90;;;;;;5021489;28;20037;-76
2022/10/24 10:48:48;;;;;;;5.25;0.40;;;18.40;99.90;;;;;;5004627;28;20038;-77
2022/10/24 10:51:46;;;;;;;5.43;0.43;;;18.40;99.90;;;;;;5015712;28;20492;-78
2022/10/24 10:54:36;;;;;;;3.22;0.40;;;18.40;99.90;;;;;;5018215;28;20044;-76
2022/10/24 10:57:11;;;;;;;2.33;0.30;;;18.40;99.90;;;;;;5020380;28;20038;-77
2022/10/24 11:00:00;;;;;;;4.68;0.43;;;18.40;99.90;;;;;;5015659;28;20044;-76
2022/10/24 11:02:43;;;;;;;4.25;0.73;;;18.30;99.90;;;;;;5019281;28;20041;-78
2022/10/24 11:05:22;;;;;;;4.10;0.65;;;18.40;99.90;;;;;;5022065;28;20400;-75
2022/10/24 11:08:05;;;;;;;2.28;0.40;;;18.40;99.90;;;;;;5025328;28;20037;-77
2022/10/24 11:10:38;;;;;;;2.55;0.38;;;18.40;99.90;;;;;;5017539;28;20044;-74
2022/10/24 11:13:13;;;;;;;4.43;0.57;;;18.50;99.90;;;;;;5019488;28;20045;-76
2022/10/24 11:15:45;;;;;;;4.47;0.50;;;18.60;99.90;;;;;;5021218;28;20076;-76
2022/10/24 11:18:25;;;;;;;2.70;0.30;;;18.70;99.90;;;;;;5021792;28;20057;-77
2022/10/24 11:20:56;;;;;;;3.65;0.43;;;18.80;99.90;;;;;;5015899;28;20052;-76
2022/10/24 11:23:53;;;;;;;3.50;0.40;;;18.90;99.90;;;;;;5018252;28;20045;-77
2022/10/24 11:26:31;;;;;;;3.53;0.22;;;19.00;99.90;;;;;;5015924;28;20404;-76
2022/10/24 11:29:10;;;;;;;5.47;0.43;;;19.00;99.90;;;;;;5015121;28;20034;-75
2022/10/24 11:31:51;;;;;;;4.85;0.32;;;19.00;99.90;;;;;;5016667;28;20044;-76
2022/10/24 11:34:43;;;;;;;1.50;0.32;;;19.00;99.90;;;;;;5021016;28;20046;-75
2022/10/24 11:37:31;;;;;;;4.43;0.80;;;18.90;99.90;;;;;;5003623;28;20033;-75
2022/10/24 11:40:11;;;;;;;3.53;0.30;;;18.80;99.90;;;;;;5011717;28;20048;-74
2022/10/24 11:43:06;;;;;;;2.80;0.40;;;18.70;99.90;;;;;;5002382;28;20056;-76
2022/10/24 11:45:50;;;;;;;3.90;0.50;;;18.80;99.90;;;;;;5023560;28;20052;-75
2022/10/24 11:48:27;;;;;;;4.18;0.50;;;18.90;99.90;;;;;;5024711;28;20029;-77
2022/10/24 11:51:17;;;;;;;3.53;0.50;;;18.90;99.90;;;;;;5014227;28;20404;-75
2022/10/24 11:53:51;;;;;;;6.20;0.50;;;18.90;99.90;;;;;;5021499;28;20041;-77
2022/10/24 11:56:36;;;;;;;6.63;0.50;;;18.80;99.90;;;;;;5023359;28;20048;-76
2022/10/24 11:59:07;;;;;;;3.83;0.30;;;18.70;99.90;;;;;;5020471;28;20026;-76
2022/10/24 12:02:21;;;;;;;3.42;0.70;;;18.60;99.90;;;;;;5016080;28;20034;-74
2022/10/24 12:05:12;;;;;;;3.40;0.30;;;18.40;99.90;;;;;;5007968;28;20050;-77
2022/10/24 12:07:51;;;;;;;5.85;0.30;;;18.30;99.90;;;;;;5020926;28;20037;-78
2022/10/24 12:10:28;;;;;;;5.57;0.50;;;18.20;99.90;;;;;;5017135;28;20041;-77
2022/10/24 12:13:07;;;;;;;3.78;0.57;;;18.30;99.90;;;;;;5025243;28;20043;-76
2022/10/24 12:15:42;;;;;;;4.18;0.50;;;18.40;99.90;;;;;;5026310;28;20041;-76
2022/10/24 12:18:29;;;;;;;6.15;0.73;;;19.00;99.90;;;;;;5027726;28;20492;-76
2022/10/24 12:21:02;;;;;;;5.22;0.70;;;19.40;99.90;;;;;;5019331;28;20048;-76
2022/10/24 12:23:30;;;;;;;4.38;0.60;;;19.50;99.90;;;;;;5024268;28;20445;-76
2022/10/24 12:26:17;;;;;;;4.47;0.50;;;19.60;99.90;;;;;;5033057;28;20025;-75
2022/10/24 12:29:05;;;;;;;3.00;0.40;;;19.50;99.90;;;;;;5023923;28;20052;-76
2022/10/24 12:31:33;;;;;;;2.55;0.30;;;19.40;99.90;;;;;;5019253;28;20041;-75
2022/10/24 12:34:15;;;;;;;3.63;0.30;;;19.20;99.90;;;;;;5006551;28;20479;-76
2022/10/24 12:37:03;;;;;;;1.50;0.30;;;19.10;99.90;;;;;;5020005;28;20040;-75
2022/10/24 12:39:35;;;;;;;2.53;0.20;;;19.10;99.90;;;;;;5020347;28;20045;-73
2022/10/24 12:42:01;;;;;;;3.22;0.47;;;19.10;99.90;;;;;;5020987;28;20045;-75
2022/10/24 12:44:34;;;;;;;7.15;0.50;;;19.10;99.90;;;;;;5022729;28;20045;-76
2022/10/24 12:47:28;;;;;;;4.30;0.45;;;19.10;99.90;;;;;;5022451;28;20309;-76
2022/10/24 12:49:55;;;;;;;4.43;0.40;;;19.00;99.90;;;;;;5018001;28;20045;-72
2022/10/24 12:52:31;;;;;;;5.03;0.60;;;18.80;99.90;;;;;;5023869;28;20034;-73
2022/10/24 12:54:58;;;;;;;3.42;0.50;;;18.70;99.90;;;;;;5023112;28;20481;-74
2022/10/24 12:57:27;;;;;;;6.47;0.85;;;18.70;99.90;;;;;;5009491;28;20057;-71
2022/10/24 12:59:59;;;;;;;3.95;0.47;;;18.60;99.90;;;;;;5018603;28;20042;-74
2022/10/24 13:02:32;;;;;;;2.33;0.57;;;18.50;99.90;;;;;;5022473;28;20491;-70
2022/10/24 13:05:16;;;;;;;4.63;0.50;;;18.50;99.90;;;;;;5019715;28;20041;-72
2022/10/24 13:08:10;;;;;;;5.40;0.47;;;18.60;99.90;;;;;;5020121;28;20489;-71
2022/10/24 13:11:04;;;;;;;2.88;0.40;;;18.60;99.90;;;;;;5001817;28;20040;-73